KAL2103 RKSS-RJTT
Flight info
| Callsign | KAL2103 |
|---|---|
| Flight time | N/A |
| Altitude | 33000 |
| Route | EGOBA Y697 LANAT Y71 XAC |
| Aircraft | A20N/M-SDE2E3FGHIRWXY/LB1 |
Departure
| Time | 2026-04-29 11:18 |
|---|---|
| Airport | Gimpo International Airport (RKSS) |
Arrival
| Time | N/A |
|---|---|
| Airport | Tokyo Haneda International Airport (RJTT) |
| Time | Latitude | Longitude | Altitude | Speed | Heading |
|---|---|---|---|---|---|
| 2026-04-29 10:57 | 37.56819 | 126.80265 | 67 ft | 0 kts | 135° |
| 2026-04-29 11:05 | 37.56822 | 126.80261 | 67 ft | 3 kts | 135° |
| 2026-04-29 11:05 | 37.56842 | 126.80238 | 62 ft | 4 kts | 145° |
| 2026-04-29 11:05 | 37.56865 | 126.80222 | 67 ft | 4 kts | 158° |
| 2026-04-29 11:06 | 37.56890 | 126.80213 | 67 ft | 4 kts | 179° |
| 2026-04-29 11:06 | 37.56915 | 126.80219 | 67 ft | 4 kts | 219° |
| 2026-04-29 11:06 | 37.56919 | 126.80223 | 67 ft | 0 kts | 225° |
| 2026-04-29 11:09 | 37.56918 | 126.80221 | 67 ft | 1 kts | 225° |
| 2026-04-29 11:09 | 37.56895 | 126.80188 | 64 ft | 9 kts | 237° |
| 2026-04-29 11:10 | 37.56845 | 126.80100 | 63 ft | 16 kts | 228° |
| 2026-04-29 11:10 | 37.56753 | 126.79986 | 67 ft | 20 kts | 225° |
| 2026-04-29 11:10 | 37.56649 | 126.79854 | 62 ft | 22 kts | 225° |
| 2026-04-29 11:10 | 37.56543 | 126.79718 | 63 ft | 22 kts | 225° |
| 2026-04-29 11:11 | 37.56433 | 126.79579 | 62 ft | 22 kts | 225° |
| 2026-04-29 11:11 | 37.56324 | 126.79440 | 59 ft | 22 kts | 225° |
| 2026-04-29 11:11 | 37.56217 | 126.79309 | 61 ft | 19 kts | 224° |
| 2026-04-29 11:11 | 37.56137 | 126.79292 | 60 ft | 12 kts | 139° |
| 2026-04-29 11:12 | 37.56071 | 126.79376 | 60 ft | 15 kts | 134° |
| 2026-04-29 11:12 | 37.55995 | 126.79473 | 66 ft | 17 kts | 134° |
| 2026-04-29 11:12 | 37.55908 | 126.79583 | 63 ft | 18 kts | 135° |
| 2026-04-29 11:12 | 37.55813 | 126.79703 | 61 ft | 20 kts | 135° |
| 2026-04-29 11:13 | 37.55709 | 126.79834 | 66 ft | 22 kts | 135° |
| 2026-04-29 11:13 | 37.55597 | 126.79975 | 64 ft | 23 kts | 135° |
| 2026-04-29 11:13 | 37.55486 | 126.80117 | 60 ft | 23 kts | 134° |
| 2026-04-29 11:13 | 37.55369 | 126.80265 | 62 ft | 23 kts | 136° |
| 2026-04-29 11:14 | 37.55265 | 126.80396 | 63 ft | 21 kts | 135° |
| 2026-04-29 11:14 | 37.55163 | 126.80522 | 61 ft | 21 kts | 135° |
| 2026-04-29 11:14 | 37.55058 | 126.80655 | 64 ft | 22 kts | 136° |
| 2026-04-29 11:14 | 37.54949 | 126.80792 | 61 ft | 17 kts | 134° |
| 2026-04-29 11:15 | 37.54866 | 126.80816 | 58 ft | 13 kts | 226° |
| 2026-04-29 11:15 | 37.54798 | 126.80713 | 59 ft | 14 kts | 244° |
| 2026-04-29 11:15 | 37.54842 | 126.80628 | 54 ft | 9 kts | 315° |
| 2026-04-29 11:15 | 37.54871 | 126.80592 | 53 ft | 1 kts | 315° |
| 2026-04-29 11:16 | 37.54880 | 126.80580 | 60 ft | 3 kts | 315° |
| 2026-04-29 11:16 | 37.54891 | 126.80567 | 60 ft | 0 kts | 315° |
| 2026-04-29 11:17 | 37.54900 | 126.80556 | 52 ft | 7 kts | 315° |
| 2026-04-29 11:17 | 37.55038 | 126.80384 | 60 ft | 59 kts | 315° |
| 2026-04-29 11:17 | 37.55488 | 126.79816 | 53 ft | 120 kts | 315° |
| 2026-04-29 11:18 | 37.56197 | 126.78931 | 65 ft | 165 kts | 315° |
| 2026-04-29 11:18 | 37.57045 | 126.77850 | 419 ft | 176 kts | 314° |
| 2026-04-29 11:18 | 37.57896 | 126.76745 | 1099 ft | 173 kts | 313° |
| 2026-04-29 11:18 | 37.58692 | 126.75681 | 1832 ft | 169 kts | 313° |
| 2026-04-29 11:19 | 37.59529 | 126.74550 | 2235 ft | 185 kts | 313° |
| 2026-04-29 11:19 | 37.60451 | 126.73299 | 2608 ft | 205 kts | 313° |
| 2026-04-29 11:19 | 37.61453 | 126.71937 | 3194 ft | 215 kts | 313° |
| 2026-04-29 11:19 | 37.62293 | 126.70312 | 3740 ft | 230 kts | 285° |
| 2026-04-29 11:20 | 37.62335 | 126.68357 | 4510 ft | 234 kts | 256° |
| 2026-04-29 11:20 | 37.61628 | 126.66619 | 4878 ft | 237 kts | 230° |
| 2026-04-29 11:20 | 37.61129 | 126.65915 | 4957 ft | 238 kts | 227° |
| 2026-04-29 11:20 | 37.59974 | 126.64416 | 5026 ft | 244 kts | 226° |
| 2026-04-29 11:21 | 37.58778 | 126.62882 | 5024 ft | 250 kts | 226° |
| 2026-04-29 11:21 | 37.57573 | 126.61307 | 5024 ft | 249 kts | 227° |
| 2026-04-29 11:21 | 37.56282 | 126.59855 | 5019 ft | 252 kts | 211° |
| 2026-04-29 11:21 | 37.54711 | 126.59177 | 5259 ft | 257 kts | 187° |
| 2026-04-29 11:22 | 37.52952 | 126.58962 | 6063 ft | 256 kts | 186° |
| 2026-04-29 11:22 | 37.51178 | 126.58727 | 7014 ft | 257 kts | 187° |
| 2026-04-29 11:22 | 37.49386 | 126.58480 | 7834 ft | 262 kts | 187° |
| 2026-04-29 11:22 | 37.47549 | 126.58226 | 8556 ft | 271 kts | 187° |
| 2026-04-29 11:23 | 37.45713 | 126.57975 | 9281 ft | 276 kts | 187° |
| 2026-04-29 11:23 | 37.43793 | 126.57712 | 10094 ft | 280 kts | 186° |
| 2026-04-29 11:23 | 37.41839 | 126.57451 | 10861 ft | 285 kts | 184° |
| 2026-04-29 11:23 | 37.39847 | 126.57483 | 11579 ft | 290 kts | 173° |
| 2026-04-29 11:24 | 37.37857 | 126.57942 | 11903 ft | 292 kts | 167° |
| 2026-04-29 11:24 | 37.35897 | 126.58571 | 12001 ft | 291 kts | 156° |
| 2026-04-29 11:24 | 37.34246 | 126.59988 | 12081 ft | 289 kts | 130° |
| 2026-04-29 11:24 | 37.33373 | 126.61745 | 12145 ft | 287 kts | 108° |
| 2026-04-29 11:25 | 37.33094 | 126.64175 | 12221 ft | 285 kts | 83° |
| 2026-04-29 11:25 | 37.33492 | 126.66640 | 12312 ft | 300 kts | 75° |
| 2026-04-29 11:25 | 37.34017 | 126.69302 | 12397 ft | 327 kts | 75° |
| 2026-04-29 11:25 | 37.34571 | 126.72168 | 12486 ft | 345 kts | 76° |
| 2026-04-29 11:26 | 37.35639 | 126.78050 | 12634 ft | 346 kts | 77° |
| 2026-04-29 11:26 | 37.36093 | 126.80639 | 12739 ft | 348 kts | 77° |
| 2026-04-29 11:26 | 37.36614 | 126.83635 | 13202 ft | 353 kts | 77° |
| 2026-04-29 11:27 | 37.37211 | 126.86623 | 13245 ft | 352 kts | 73° |
| 2026-04-29 11:27 | 37.37890 | 126.89588 | 13625 ft | 354 kts | 73° |
| 2026-04-29 11:27 | 37.38557 | 126.92522 | 14429 ft | 355 kts | 73° |
| 2026-04-29 11:27 | 37.39230 | 126.95494 | 15108 ft | 359 kts | 73° |
| 2026-04-29 11:28 | 37.39918 | 126.98535 | 15780 ft | 363 kts | 73° |
| 2026-04-29 11:28 | 37.40613 | 127.01612 | 16416 ft | 368 kts | 73° |
| 2026-04-29 11:28 | 37.41314 | 127.04721 | 17047 ft | 372 kts | 73° |
| 2026-04-29 11:28 | 37.42021 | 127.07861 | 17650 ft | 376 kts | 73° |
| 2026-04-29 11:29 | 37.42737 | 127.11043 | 18257 ft | 380 kts | 74° |
| 2026-04-29 11:29 | 37.43456 | 127.14251 | 18827 ft | 384 kts | 73° |
| 2026-04-29 11:29 | 37.44190 | 127.17527 | 19270 ft | 392 kts | 73° |
| 2026-04-29 11:29 | 37.44940 | 127.20874 | 19633 ft | 402 kts | 73° |
| 2026-04-29 11:30 | 37.45694 | 127.24240 | 20078 ft | 408 kts | 73° |
| 2026-04-29 11:30 | 37.46470 | 127.27709 | 20531 ft | 415 kts | 73° |
| 2026-04-29 11:30 | 37.47255 | 127.31234 | 20950 ft | 422 kts | 73° |
| 2026-04-29 11:30 | 37.48053 | 127.34825 | 21355 ft | 429 kts | 73° |
| 2026-04-29 11:31 | 37.48831 | 127.38472 | 21684 ft | 436 kts | 77° |
| 2026-04-29 11:31 | 37.49432 | 127.42256 | 22084 ft | 442 kts | 78° |
| 2026-04-29 11:31 | 37.50044 | 127.46073 | 22501 ft | 448 kts | 78° |
| 2026-04-29 11:31 | 37.50675 | 127.49946 | 22804 ft | 456 kts | 78° |
| 2026-04-29 11:32 | 37.51322 | 127.53949 | 23183 ft | 461 kts | 78° |
| 2026-04-29 11:32 | 37.51899 | 127.57540 | 23541 ft | 466 kts | 78° |
| 2026-04-29 11:32 | 37.52536 | 127.61554 | 23894 ft | 473 kts | 78° |
| 2026-04-29 11:32 | 37.52754 | 127.62933 | 23996 ft | 476 kts | 78° |
| 2026-04-29 11:33 | 37.53417 | 127.67103 | 24308 ft | 483 kts | 78° |
| 2026-04-29 11:33 | 37.54069 | 127.71218 | 24695 ft | 486 kts | 78° |
| 2026-04-29 11:33 | 37.54733 | 127.75415 | 25096 ft | 490 kts | 78° |
| 2026-04-29 11:33 | 37.55404 | 127.79650 | 25398 ft | 496 kts | 78° |
| 2026-04-29 11:34 | 37.56077 | 127.83937 | 25818 ft | 500 kts | 78° |
| 2026-04-29 11:34 | 37.56751 | 127.88243 | 26185 ft | 503 kts | 78° |
| 2026-04-29 11:34 | 37.57431 | 127.92588 | 26461 ft | 508 kts | 78° |
| 2026-04-29 11:34 | 37.58118 | 127.96977 | 26817 ft | 512 kts | 79° |
| 2026-04-29 11:35 | 37.58780 | 128.01187 | 27107 ft | 516 kts | 79° |
| 2026-04-29 11:35 | 37.59477 | 128.05641 | 27414 ft | 520 kts | 79° |
| 2026-04-29 11:35 | 37.60174 | 128.10109 | 27732 ft | 523 kts | 79° |
| 2026-04-29 11:35 | 37.60875 | 128.14634 | 27954 ft | 529 kts | 79° |
| 2026-04-29 11:36 | 37.61579 | 128.19197 | 28357 ft | 530 kts | 79° |
| 2026-04-29 11:36 | 37.62283 | 128.23776 | 28646 ft | 535 kts | 79° |
| 2026-04-29 11:36 | 37.62985 | 128.28327 | 28826 ft | 539 kts | 79° |
| 2026-04-29 11:36 | 37.63700 | 128.32986 | 29098 ft | 540 kts | 79° |
| 2026-04-29 11:37 | 37.64410 | 128.37644 | 29362 ft | 543 kts | 80° |
| 2026-04-29 11:37 | 37.65123 | 128.42344 | 29520 ft | 549 kts | 79° |
| 2026-04-29 11:37 | 37.65844 | 128.47083 | 29849 ft | 550 kts | 79° |
| 2026-04-29 11:37 | 37.66563 | 128.51826 | 30084 ft | 553 kts | 79° |
| 2026-04-29 11:38 | 37.67287 | 128.56607 | 30334 ft | 555 kts | 80° |
| 2026-04-29 11:38 | 37.68009 | 128.61401 | 30588 ft | 558 kts | 80° |
| 2026-04-29 11:38 | 37.68730 | 128.66235 | 30811 ft | 562 kts | 80° |
| 2026-04-29 11:38 | 37.69284 | 128.71123 | 31114 ft | 562 kts | 89° |
| 2026-04-29 11:39 | 37.69203 | 128.76021 | 31416 ft | 557 kts | 101° |
| 2026-04-29 11:39 | 37.68462 | 128.80781 | 31714 ft | 548 kts | 112° |
| 2026-04-29 11:39 | 37.67104 | 128.85237 | 31917 ft | 539 kts | 124° |
| 2026-04-29 11:39 | 37.65177 | 128.89207 | 32291 ft | 524 kts | 136° |
| 2026-04-29 11:40 | 37.62924 | 128.92700 | 32608 ft | 518 kts | 140° |
| 2026-04-29 11:40 | 37.60653 | 128.96240 | 32930 ft | 521 kts | 137° |
| 2026-04-29 11:40 | 37.58483 | 128.99998 | 33072 ft | 525 kts | 134° |
| 2026-04-29 11:40 | 37.56492 | 129.03798 | 33097 ft | 527 kts | 131° |
| 2026-04-29 11:41 | 37.53795 | 129.09272 | 33102 ft | 528 kts | 130° |
| 2026-04-29 11:41 | 37.49977 | 129.17210 | 33101 ft | 529 kts | 130° |
| 2026-04-29 11:42 | 37.46160 | 129.25123 | 33109 ft | 529 kts | 130° |
| 2026-04-29 11:42 | 37.42326 | 129.33039 | 33110 ft | 529 kts | 130° |
| 2026-04-29 11:43 | 37.38518 | 129.40883 | 33101 ft | 530 kts | 130° |
| 2026-04-29 11:43 | 37.34670 | 129.48787 | 33105 ft | 530 kts | 130° |
| 2026-04-29 11:44 | 37.30817 | 129.56685 | 33106 ft | 530 kts | 130° |
| 2026-04-29 11:44 | 37.27613 | 129.63239 | 33111 ft | 530 kts | 130° |
| 2026-04-29 11:45 | 37.23751 | 129.71120 | 33117 ft | 530 kts | 130° |
| 2026-04-29 11:45 | 37.19874 | 129.79013 | 33118 ft | 530 kts | 130° |
| 2026-04-29 11:46 | 37.16000 | 129.86883 | 33118 ft | 530 kts | 131° |
| 2026-04-29 11:46 | 37.12124 | 129.94735 | 33119 ft | 530 kts | 131° |
| 2026-04-29 11:47 | 37.08241 | 130.02585 | 33116 ft | 530 kts | 131° |
| 2026-04-29 11:47 | 37.04378 | 130.10376 | 33101 ft | 530 kts | 131° |
| 2026-04-29 11:48 | 37.00481 | 130.18216 | 33101 ft | 530 kts | 131° |
| 2026-04-29 11:48 | 36.96580 | 130.26045 | 33102 ft | 530 kts | 131° |
| 2026-04-29 11:49 | 36.92678 | 130.33858 | 33103 ft | 531 kts | 131° |
| 2026-04-29 11:49 | 36.88763 | 130.41680 | 33105 ft | 531 kts | 131° |
| 2026-04-29 11:50 | 36.84870 | 130.49445 | 33105 ft | 531 kts | 131° |
| 2026-04-29 11:50 | 36.80945 | 130.57247 | 33109 ft | 531 kts | 131° |
| 2026-04-29 11:51 | 36.77007 | 130.65058 | 33120 ft | 531 kts | 131° |
| 2026-04-29 11:51 | 36.73072 | 130.72848 | 33121 ft | 532 kts | 131° |
| 2026-04-29 11:52 | 36.69151 | 130.80595 | 33122 ft | 532 kts | 131° |
| 2026-04-29 11:52 | 36.65173 | 130.88437 | 33121 ft | 532 kts | 131° |
| 2026-04-29 11:53 | 36.61244 | 130.96163 | 33122 ft | 532 kts | 131° |
| 2026-04-29 11:53 | 36.57281 | 131.03937 | 33123 ft | 532 kts | 131° |
| 2026-04-29 11:54 | 36.53311 | 131.11705 | 33121 ft | 532 kts | 131° |
| 2026-04-29 11:54 | 36.49339 | 131.19463 | 33122 ft | 532 kts | 131° |
| 2026-04-29 11:55 | 36.45363 | 131.27215 | 33136 ft | 531 kts | 131° |
| 2026-04-29 11:55 | 36.41406 | 131.34904 | 33116 ft | 532 kts | 131° |
| 2026-04-29 11:56 | 36.37556 | 131.42762 | 33121 ft | 540 kts | 124° |
| 2026-04-29 11:56 | 36.34811 | 131.51546 | 33122 ft | 548 kts | 116° |
| 2026-04-29 11:57 | 36.32272 | 131.60453 | 33122 ft | 548 kts | 116° |
| 2026-04-29 11:57 | 36.29719 | 131.69359 | 33119 ft | 548 kts | 116° |
| 2026-04-29 11:58 | 36.27163 | 131.78242 | 33126 ft | 547 kts | 116° |
| 2026-04-29 11:58 | 36.24591 | 131.87131 | 33116 ft | 547 kts | 116° |
| 2026-04-29 11:59 | 36.22019 | 131.95991 | 33113 ft | 547 kts | 116° |
| 2026-04-29 11:59 | 36.19441 | 132.04848 | 33113 ft | 547 kts | 116° |
| 2026-04-29 12:00 | 36.16870 | 132.13645 | 33115 ft | 547 kts | 116° |
| 2026-04-29 12:00 | 36.14278 | 132.22491 | 33113 ft | 547 kts | 117° |
| 2026-04-29 12:01 | 36.11681 | 132.31329 | 33117 ft | 547 kts | 117° |
| 2026-04-29 12:01 | 36.09076 | 132.40165 | 33119 ft | 547 kts | 117° |
| 2026-04-29 12:02 | 36.06460 | 132.49002 | 33111 ft | 547 kts | 117° |
| 2026-04-29 12:02 | 36.03824 | 132.57882 | 33132 ft | 546 kts | 117° |
| 2026-04-29 12:03 | 36.01238 | 132.66592 | 33413 ft | 537 kts | 116° |
| 2026-04-29 12:03 | 35.99948 | 132.70914 | 33684 ft | 537 kts | 116° |
| 2026-04-29 12:03 | 35.98652 | 132.75249 | 33970 ft | 537 kts | 116° |
| 2026-04-29 12:04 | 35.97367 | 132.79545 | 34408 ft | 532 kts | 116° |
| 2026-04-29 12:04 | 35.96083 | 132.83830 | 34644 ft | 533 kts | 116° |
| 2026-04-29 12:04 | 35.94808 | 132.88068 | 34805 ft | 535 kts | 116° |
| 2026-04-29 12:04 | 35.93511 | 132.92381 | 35083 ft | 534 kts | 116° |
| 2026-04-29 12:05 | 35.92215 | 132.96681 | 35311 ft | 535 kts | 116° |
| 2026-04-29 12:05 | 35.90917 | 133.00982 | 35533 ft | 535 kts | 116° |
| 2026-04-29 12:05 | 35.89621 | 133.05274 | 35746 ft | 535 kts | 116° |
| 2026-04-29 12:05 | 35.88319 | 133.09581 | 35961 ft | 535 kts | 116° |
| 2026-04-29 12:06 | 35.87018 | 133.13876 | 36173 ft | 535 kts | 116° |
| 2026-04-29 12:06 | 35.85713 | 133.18179 | 36333 ft | 536 kts | 116° |
| 2026-04-29 12:06 | 35.84404 | 133.22484 | 36490 ft | 537 kts | 116° |
| 2026-04-29 12:06 | 35.83092 | 133.26797 | 36691 ft | 537 kts | 116° |
| 2026-04-29 12:07 | 35.81784 | 133.31094 | 36986 ft | 533 kts | 116° |
| 2026-04-29 12:07 | 35.80504 | 133.35295 | 37130 ft | 529 kts | 116° |
| 2026-04-29 12:07 | 35.77919 | 133.43750 | 37154 ft | 528 kts | 117° |
| 2026-04-29 12:08 | 35.75320 | 133.52217 | 37156 ft | 528 kts | 117° |
| 2026-04-29 12:08 | 35.72720 | 133.60666 | 37157 ft | 528 kts | 117° |
| 2026-04-29 12:09 | 35.70111 | 133.69120 | 37156 ft | 529 kts | 117° |
| 2026-04-29 12:09 | 35.67494 | 133.77582 | 37157 ft | 529 kts | 117° |
| 2026-04-29 12:10 | 35.64872 | 133.86032 | 37156 ft | 529 kts | 117° |
| 2026-04-29 12:10 | 35.62246 | 133.94469 | 37154 ft | 528 kts | 117° |
| 2026-04-29 12:11 | 35.59632 | 134.02847 | 37147 ft | 528 kts | 117° |
| 2026-04-29 12:11 | 35.56994 | 134.11264 | 37144 ft | 528 kts | 117° |
| 2026-04-29 12:12 | 35.54352 | 134.19682 | 37146 ft | 528 kts | 117° |
| 2026-04-29 12:12 | 35.51702 | 134.28100 | 37147 ft | 529 kts | 117° |
| 2026-04-29 12:13 | 35.49043 | 134.36517 | 37150 ft | 529 kts | 117° |
| 2026-04-29 12:13 | 35.46379 | 134.44931 | 37151 ft | 530 kts | 117° |
| 2026-04-29 12:14 | 35.43708 | 134.53340 | 37149 ft | 529 kts | 117° |
| 2026-04-29 12:14 | 35.41047 | 134.61692 | 37146 ft | 530 kts | 117° |
| 2026-04-29 12:15 | 35.38361 | 134.70105 | 37147 ft | 530 kts | 117° |
| 2026-04-29 12:15 | 35.35668 | 134.78514 | 37142 ft | 530 kts | 117° |
| 2026-04-29 12:16 | 35.32970 | 134.86917 | 37142 ft | 530 kts | 117° |
| 2026-04-29 12:16 | 35.30280 | 134.95271 | 37141 ft | 531 kts | 117° |
| 2026-04-29 12:17 | 35.27589 | 135.03603 | 37144 ft | 531 kts | 117° |
| 2026-04-29 12:17 | 35.24863 | 135.12016 | 37142 ft | 531 kts | 117° |
| 2026-04-29 12:18 | 35.22158 | 135.20357 | 37142 ft | 531 kts | 116° |
| 2026-04-29 12:18 | 35.21123 | 135.24709 | 37140 ft | 537 kts | 105° |
| 2026-04-29 12:18 | 35.20371 | 135.29180 | 37136 ft | 537 kts | 104° |
| 2026-04-29 12:19 | 35.18912 | 135.38138 | 37139 ft | 538 kts | 104° |
| 2026-04-29 12:19 | 35.17440 | 135.47031 | 37133 ft | 538 kts | 104° |
| 2026-04-29 12:20 | 35.15934 | 135.55980 | 37131 ft | 537 kts | 105° |
| 2026-04-29 12:20 | 35.14419 | 135.64917 | 37129 ft | 537 kts | 105° |
| 2026-04-29 12:21 | 35.12946 | 135.73564 | 37126 ft | 537 kts | 105° |
| 2026-04-29 12:21 | 35.11419 | 135.82490 | 37125 ft | 536 kts | 105° |
| 2026-04-29 12:22 | 35.09888 | 135.91400 | 37122 ft | 536 kts | 105° |
| 2026-04-29 12:22 | 35.08377 | 136.00163 | 37123 ft | 536 kts | 105° |
| 2026-04-29 12:23 | 35.06832 | 136.09075 | 37104 ft | 537 kts | 105° |
| 2026-04-29 12:23 | 35.05279 | 136.18003 | 37096 ft | 538 kts | 105° |
| 2026-04-29 12:24 | 35.03715 | 136.26929 | 37113 ft | 538 kts | 105° |
| 2026-04-29 12:24 | 35.02933 | 136.31387 | 37109 ft | 538 kts | 105° |
| 2026-04-29 12:25 | 35.01985 | 136.36768 | 37113 ft | 539 kts | 105° |
| 2026-04-29 12:26 | 34.99617 | 136.50169 | 37117 ft | 538 kts | 105° |